EHRDEDLV

Guest
Details From EHRD - Rotterdam The Hague
To EDLV - NIEDERRHEIN
Flight Number -
Tags decoded
Created
Modified
Stats Distance 108 nm / 199 km
Max Altitude 0 ft / 0 m
Waypoints 4
Social Downloads 3
Likes 0
Share VATSIM

Download

Looking for another format? Having issues loading an existing format? Contact us
Advertisement - Login to hide

Notes

Requested: EHRD ARNEM T196 TEBRO P71 SOBTU EDLV Unmatched points: T196 P71 SOBTU

Route

EHRD ARNEM TEBRO EDLV

ID Type Via Altitude Latitude Longitude Leg Dist Tot Dist Heading (true) Name
O EHRD APT - 0 ft / 0 m 51.95747˚ 4.44166˚ - 0 nm - Rotterdam The Hague
ARNEM FIX - 0 ft / 0 m 52.09645˚ 6.07660˚ 60 nm 60 nm 81° / 83° -
TEBRO FIX - 0 ft / 0 m 51.89417˚ 6.58778˚ 22 nm 83 nm 123° / 123° -
O EDLV APT - 0 ft / 0 m 51.60246˚ 6.14213˚ 24 nm 107 nm 224° / 223° NIEDERRHEIN

Altitude Profile

Advertisement - Login to hide

EHRD

Details ICAO EHRD (RTM)
Name Rotterdam The Hague
Region Netherlands
Timezone Europe/Amsterdam (UTC+2.0)
Stats Elevation -15 ft / -5 m (AMSL)
Location 51.957468° 4.441662°
Runways 1
Magnetic Variation 1.110° E

METAR

EHRD 230555Z AUTO 33003KT 290V040 7000 -RA FEW015CB BKN048 15/14 Q1019 RERA REDZ TEMPO -SHRA SCT060CB

Decode

TAF

TAF EHRD 230453Z 2306/2412 06011KT CAVOK PROB40 TEMPO 2306/2310 6000 SHRA RA SCT060CB

Decode

Departure Runways

ID Width Length Bearing (true) Bearing (mag) Surface Threshold Offset Overrun Length
06 148 ft / 45 m 7,201 ft / 2,195 m 56.93° 55.82° Asphalt 656 ft / 200 m 0 ft / 0 m
24 148 ft / 45 m 7,201 ft / 2,195 m 236.95° 235.84° Asphalt 656 ft / 200 m 0 ft / 0 m

EDLV

Details ICAO EDLV (NRN)
Name NIEDERRHEIN
Region Germany - Civil
Timezone Europe/Berlin (UTC+2.0)
Stats Elevation 106 ft / 32 m (AMSL)
Location 51.602455° 6.142132°
Runways 1
Magnetic Variation 1.665° E

METAR

EDLV 230550Z VRB02KT CAVOK 16/15 Q1018

Decode

TAF

TAF EDLV 230500Z 2306/2406 03004KT 9999 FEW040 BECMG 2309/2312 05010KT BECMG 2316/2319 04005KT

Decode

Destination Runways

ID Width Length Bearing (true) Bearing (mag) Surface Threshold Offset Overrun Length
09 148 ft / 45 m 7,981 ft / 2,433 m 92.02° 90.35° Asphalt 0 ft / 0 m 902 ft / 275 m
27 148 ft / 45 m 7,981 ft / 2,433 m 272.05° 270.38° Asphalt 0 ft / 0 m 902 ft / 275 m

Approach Navaids

Runway Type Ident Frequency Range Bearing (true) Bearing (mag) Slope Elevation
27 Localiser INIW 110.70 MHz 18 nm / 33 km 271.93° 270.26° - 106 ft / 32 m (AMSL)
27 Glidescope INIW 110.70 MHz 10 nm / 19 km 272.04° 270.37° 3.00° 106 ft / 32 m (AMSL)

Popular Alternatives